Phoenix, Arizona
Traffic Map
Current Weather Conditions
Phoenix, Arizona
Scattered Clouds
Scattered Clouds
30°
Feels Like: 30°
Wind Chill: 30° Ceiling: Unl
Heat Index: 30° Visibility: 10mi
Dew Point: 14° Wind: 5mph
Humidity: 38% Direction: 110° (ESE)
Pressure: 29.95in Gusts: 0mph
Raw Report DataKPHX 240551Z 11004KT 10SM SCT140 SCT210 30/14 A2995 RMK AO2 SLP124 T03000144 10356 20300 51014
Traffic Incident Summary
Active as of:
Severity:
Category:
InformationThere was an issue retrieving the traffic information for this location. Please try a different location or try again shortly.
Advertisements
Track Severe Weather on mobile